sensor_id;sensor_type;location;lat;lon;timestamp;P1;durP1;ratioP1;P2;durP2;ratioP2
3815;SDS011;1923;48.154;11.536;2024-02-28T00:00:46;30.93;;;15.80;;
3815;SDS011;1923;48.154;11.536;2024-02-28T00:03:15;31.80;;;15.17;;
3815;SDS011;1923;48.154;11.536;2024-02-28T00:05:43;27.80;;;15.47;;
3815;SDS011;1923;48.154;11.536;2024-02-28T00:08:12;35.70;;;16.67;;
3815;SDS011;1923;48.154;11.536;2024-02-28T00:10:40;28.70;;;15.60;;
3815;SDS011;1923;48.154;11.536;2024-02-28T00:13:08;26.17;;;15.63;;
3815;SDS011;1923;48.154;11.536;2024-02-28T00:15:36;26.27;;;16.10;;
3815;SDS011;1923;48.154;11.536;2024-02-28T00:18:06;28.23;;;14.80;;
3815;SDS011;1923;48.154;11.536;2024-02-28T00:20:34;34.43;;;16.60;;
3815;SDS011;1923;48.154;11.536;2024-02-28T00:23:02;26.60;;;15.13;;
3815;SDS011;1923;48.154;11.536;2024-02-28T00:25:30;33.40;;;16.33;;
3815;SDS011;1923;48.154;11.536;2024-02-28T00:27:58;31.50;;;16.20;;
3815;SDS011;1923;48.154;11.536;2024-02-28T00:30:26;31.20;;;15.60;;
3815;SDS011;1923;48.154;11.536;2024-02-28T00:32:55;29.97;;;16.70;;
3815;SDS011;1923;48.154;11.536;2024-02-28T00:35:24;33.50;;;16.70;;
3815;SDS011;1923;48.154;11.536;2024-02-28T00:37:52;28.60;;;15.20;;
3815;SDS011;1923;48.154;11.536;2024-02-28T00:40:20;31.40;;;16.40;;
3815;SDS011;1923;48.154;11.536;2024-02-28T00:42:48;36.20;;;17.10;;
3815;SDS011;1923;48.154;11.536;2024-02-28T00:45:16;27.90;;;15.97;;
3815;SDS011;1923;48.154;11.536;2024-02-28T00:47:44;33.10;;;16.07;;
3815;SDS011;1923;48.154;11.536;2024-02-28T00:50:12;25.90;;;15.30;;
3815;SDS011;1923;48.154;11.536;2024-02-28T00:52:42;34.93;;;16.90;;
3815;SDS011;1923;48.154;11.536;2024-02-28T00:55:10;30.10;;;15.87;;
3815;SDS011;1923;48.154;11.536;2024-02-28T00:57:38;31.30;;;15.80;;
3815;SDS011;1923;48.154;11.536;2024-02-28T01:00:06;31.70;;;15.63;;
3815;SDS011;1923;48.154;11.536;2024-02-28T01:02:36;28.30;;;15.47;;
3815;SDS011;1923;48.154;11.536;2024-02-28T01:05:05;33.47;;;16.80;;
3815;SDS011;1923;48.154;11.536;2024-02-28T01:07:33;32.60;;;16.23;;
3815;SDS011;1923;48.154;11.536;2024-02-28T01:10:03;30.87;;;15.07;;
3815;SDS011;1923;48.154;11.536;2024-02-28T01:12:31;29.93;;;16.33;;
3815;SDS011;1923;48.154;11.536;2024-02-28T01:14:59;36.13;;;16.03;;
3815;SDS011;1923;48.154;11.536;2024-02-28T01:17:28;34.73;;;16.57;;
3815;SDS011;1923;48.154;11.536;2024-02-28T01:19:56;33.10;;;16.27;;
3815;SDS011;1923;48.154;11.536;2024-02-28T01:22:24;28.87;;;15.57;;
3815;SDS011;1923;48.154;11.536;2024-02-28T01:24:53;34.80;;;16.73;;
3815;SDS011;1923;48.154;11.536;2024-02-28T01:27:22;33.73;;;16.07;;
3815;SDS011;1923;48.154;11.536;2024-02-28T01:29:50;33.37;;;16.10;;
3815;SDS011;1923;48.154;11.536;2024-02-28T01:32:19;33.90;;;17.83;;
3815;SDS011;1923;48.154;11.536;2024-02-28T01:34:47;29.30;;;16.57;;
3815;SDS011;1923;48.154;11.536;2024-02-28T01:37:16;29.67;;;16.07;;
3815;SDS011;1923;48.154;11.536;2024-02-28T01:39:44;30.77;;;15.87;;
3815;SDS011;1923;48.154;11.536;2024-02-28T01:42:13;32.60;;;16.80;;
3815;SDS011;1923;48.154;11.536;2024-02-28T01:44:44;30.97;;;16.17;;
3815;SDS011;1923;48.154;11.536;2024-02-28T01:47:15;28.73;;;15.47;;
3815;SDS011;1923;48.154;11.536;2024-02-28T01:49:43;37.57;;;16.90;;
3815;SDS011;1923;48.154;11.536;2024-02-28T01:52:13;32.17;;;16.40;;
3815;SDS011;1923;48.154;11.536;2024-02-28T01:54:42;33.40;;;16.33;;
3815;SDS011;1923;48.154;11.536;2024-02-28T01:57:10;36.60;;;17.57;;
3815;SDS011;1923;48.154;11.536;2024-02-28T01:59:39;32.03;;;15.53;;
3815;SDS011;1923;48.154;11.536;2024-02-28T02:02:09;34.53;;;17.33;;
3815;SDS011;1923;48.154;11.536;2024-02-28T02:04:37;39.23;;;18.03;;
3815;SDS011;1923;48.154;11.536;2024-02-28T02:07:05;37.90;;;17.73;;
3815;SDS011;1923;48.154;11.536;2024-02-28T02:09:34;35.57;;;16.90;;
3815;SDS011;1923;48.154;11.536;2024-02-28T02:12:03;33.80;;;15.80;;
3815;SDS011;1923;48.154;11.536;2024-02-28T02:14:31;31.70;;;16.40;;
3815;SDS011;1923;48.154;11.536;2024-02-28T02:16:59;31.67;;;16.60;;
3815;SDS011;1923;48.154;11.536;2024-02-28T02:19:31;32.63;;;18.13;;
3815;SDS011;1923;48.154;11.536;2024-02-28T02:21:59;35.40;;;17.70;;
3815;SDS011;1923;48.154;11.536;2024-02-28T02:24:32;30.60;;;15.87;;
3815;SDS011;1923;48.154;11.536;2024-02-28T02:27:00;33.37;;;17.17;;
3815;SDS011;1923;48.154;11.536;2024-02-28T02:29:30;32.83;;;16.10;;
3815;SDS011;1923;48.154;11.536;2024-02-28T02:31:58;28.80;;;15.80;;
3815;SDS011;1923;48.154;11.536;2024-02-28T02:34:26;34.73;;;18.07;;
3815;SDS011;1923;48.154;11.536;2024-02-28T02:36:54;37.20;;;17.10;;
3815;SDS011;1923;48.154;11.536;2024-02-28T02:39:22;41.80;;;18.90;;
3815;SDS011;1923;48.154;11.536;2024-02-28T02:41:52;37.47;;;17.67;;
3815;SDS011;1923;48.154;11.536;2024-02-28T02:44:20;39.93;;;17.30;;
3815;SDS011;1923;48.154;11.536;2024-02-28T02:46:48;37.07;;;17.10;;
3815;SDS011;1923;48.154;11.536;2024-02-28T02:49:17;33.67;;;16.70;;
3815;SDS011;1923;48.154;11.536;2024-02-28T02:51:45;35.37;;;17.87;;
3815;SDS011;1923;48.154;11.536;2024-02-28T02:54:13;36.57;;;18.10;;
3815;SDS011;1923;48.154;11.536;2024-02-28T02:56:41;38.27;;;17.20;;
3815;SDS011;1923;48.154;11.536;2024-02-28T02:59:11;35.20;;;17.43;;
3815;SDS011;1923;48.154;11.536;2024-02-28T03:01:39;42.60;;;17.93;;
3815;SDS011;1923;48.154;11.536;2024-02-28T03:04:08;38.07;;;18.87;;
3815;SDS011;1923;48.154;11.536;2024-02-28T03:06:36;39.13;;;18.13;;
3815;SDS011;1923;48.154;11.536;2024-02-28T03:09:04;34.47;;;16.37;;
3815;SDS011;1923;48.154;11.536;2024-02-28T03:11:34;36.70;;;17.23;;
3815;SDS011;1923;48.154;11.536;2024-02-28T03:14:02;37.40;;;17.40;;
3815;SDS011;1923;48.154;11.536;2024-02-28T03:16:31;36.07;;;16.93;;
3815;SDS011;1923;48.154;11.536;2024-02-28T03:19:04;33.23;;;17.37;;
3815;SDS011;1923;48.154;11.536;2024-02-28T03:21:32;39.10;;;16.90;;
3815;SDS011;1923;48.154;11.536;2024-02-28T03:24:00;36.37;;;18.63;;
3815;SDS011;1923;48.154;11.536;2024-02-28T03:26:28;33.20;;;17.20;;
3815;SDS011;1923;48.154;11.536;2024-02-28T03:28:56;40.47;;;18.83;;
3815;SDS011;1923;48.154;11.536;2024-02-28T03:31:24;39.80;;;18.50;;
3815;SDS011;1923;48.154;11.536;2024-02-28T03:33:53;42.80;;;17.90;;
3815;SDS011;1923;48.154;11.536;2024-02-28T03:36:22;40.87;;;18.63;;
3815;SDS011;1923;48.154;11.536;2024-02-28T03:38:50;34.23;;;18.00;;
3815;SDS011;1923;48.154;11.536;2024-02-28T03:41:18;43.93;;;18.70;;
3815;SDS011;1923;48.154;11.536;2024-02-28T03:43:46;38.13;;;18.13;;
3815;SDS011;1923;48.154;11.536;2024-02-28T03:46:14;45.50;;;18.70;;
3815;SDS011;1923;48.154;11.536;2024-02-28T03:48:42;38.93;;;18.33;;
3815;SDS011;1923;48.154;11.536;2024-02-28T03:51:11;43.37;;;19.97;;
3815;SDS011;1923;48.154;11.536;2024-02-28T03:53:40;37.60;;;18.27;;
3815;SDS011;1923;48.154;11.536;2024-02-28T03:56:08;36.67;;;19.33;;
3815;SDS011;1923;48.154;11.536;2024-02-28T03:58:39;39.60;;;18.60;;
3815;SDS011;1923;48.154;11.536;2024-02-28T04:01:07;39.87;;;19.10;;
3815;SDS011;1923;48.154;11.536;2024-02-28T04:03:35;39.97;;;19.37;;
3815;SDS011;1923;48.154;11.536;2024-02-28T04:06:04;36.60;;;17.77;;
3815;SDS011;1923;48.154;11.536;2024-02-28T04:08:33;41.67;;;19.40;;
3815;SDS011;1923;48.154;11.536;2024-02-28T04:11:01;38.93;;;18.50;;
3815;SDS011;1923;48.154;11.536;2024-02-28T04:13:29;45.50;;;20.20;;
3815;SDS011;1923;48.154;11.536;2024-02-28T04:15:57;39.77;;;19.43;;
3815;SDS011;1923;48.154;11.536;2024-02-28T04:18:27;41.87;;;18.73;;
3815;SDS011;1923;48.154;11.536;2024-02-28T04:20:56;43.63;;;21.17;;
3815;SDS011;1923;48.154;11.536;2024-02-28T04:23:24;43.60;;;19.53;;
3815;SDS011;1923;48.154;11.536;2024-02-28T04:25:53;37.60;;;18.47;;
3815;SDS011;1923;48.154;11.536;2024-02-28T04:28:21;36.23;;;18.63;;
3815;SDS011;1923;48.154;11.536;2024-02-28T04:30:49;45.30;;;19.97;;
3815;SDS011;1923;48.154;11.536;2024-02-28T04:33:17;38.73;;;18.60;;
3815;SDS011;1923;48.154;11.536;2024-02-28T04:35:45;44.90;;;20.03;;
3815;SDS011;1923;48.154;11.536;2024-02-28T04:38:13;39.73;;;19.73;;
3815;SDS011;1923;48.154;11.536;2024-02-28T04:40:42;49.90;;;20.30;;
3815;SDS011;1923;48.154;11.536;2024-02-28T04:43:11;37.83;;;19.00;;
3815;SDS011;1923;48.154;11.536;2024-02-28T04:45:39;37.60;;;18.67;;
3815;SDS011;1923;48.154;11.536;2024-02-28T04:48:08;44.27;;;19.60;;
3815;SDS011;1923;48.154;11.536;2024-02-28T04:50:36;44.20;;;18.33;;
3815;SDS011;1923;48.154;11.536;2024-02-28T04:53:04;39.27;;;19.70;;
3815;SDS011;1923;48.154;11.536;2024-02-28T04:55:32;40.40;;;19.40;;
3815;SDS011;1923;48.154;11.536;2024-02-28T04:58:00;45.50;;;20.67;;
3815;SDS011;1923;48.154;11.536;2024-02-28T05:00:29;41.93;;;18.67;;
3815;SDS011;1923;48.154;11.536;2024-02-28T05:02:58;47.30;;;19.93;;
3815;SDS011;1923;48.154;11.536;2024-02-28T05:05:26;43.27;;;20.80;;
3815;SDS011;1923;48.154;11.536;2024-02-28T05:07:54;47.33;;;20.70;;
3815;SDS011;1923;48.154;11.536;2024-02-28T05:10:22;42.57;;;20.70;;
3815;SDS011;1923;48.154;11.536;2024-02-28T05:12:50;43.60;;;20.17;;
3815;SDS011;1923;48.154;11.536;2024-02-28T05:15:18;44.73;;;19.87;;
3815;SDS011;1923;48.154;11.536;2024-02-28T05:17:49;48.27;;;20.60;;
3815;SDS011;1923;48.154;11.536;2024-02-28T05:20:17;46.77;;;20.97;;
3815;SDS011;1923;48.154;11.536;2024-02-28T05:22:45;43.53;;;20.47;;
3815;SDS011;1923;48.154;11.536;2024-02-28T05:25:13;45.07;;;22.13;;
3815;SDS011;1923;48.154;11.536;2024-02-28T05:27:41;47.80;;;20.47;;
3815;SDS011;1923;48.154;11.536;2024-02-28T05:30:10;42.73;;;20.30;;
3815;SDS011;1923;48.154;11.536;2024-02-28T05:32:39;50.00;;;22.37;;
3815;SDS011;1923;48.154;11.536;2024-02-28T05:35:09;45.00;;;21.10;;
3815;SDS011;1923;48.154;11.536;2024-02-28T05:37:37;42.53;;;21.23;;
3815;SDS011;1923;48.154;11.536;2024-02-28T05:40:06;47.43;;;20.83;;
3815;SDS011;1923;48.154;11.536;2024-02-28T05:42:35;45.00;;;20.53;;
3815;SDS011;1923;48.154;11.536;2024-02-28T05:45:04;47.90;;;20.77;;
3815;SDS011;1923;48.154;11.536;2024-02-28T05:47:32;43.17;;;20.50;;
3815;SDS011;1923;48.154;11.536;2024-02-28T05:50:00;42.37;;;20.60;;
3815;SDS011;1923;48.154;11.536;2024-02-28T05:52:30;41.97;;;20.10;;
3815;SDS011;1923;48.154;11.536;2024-02-28T05:54:59;39.80;;;20.00;;
3815;SDS011;1923;48.154;11.536;2024-02-28T05:57:27;45.83;;;20.60;;
3815;SDS011;1923;48.154;11.536;2024-02-28T05:59:55;42.40;;;20.30;;
3815;SDS011;1923;48.154;11.536;2024-02-28T06:02:23;45.00;;;21.47;;
3815;SDS011;1923;48.154;11.536;2024-02-28T06:04:51;44.27;;;21.77;;
3815;SDS011;1923;48.154;11.536;2024-02-28T06:07:20;42.40;;;20.47;;
3815;SDS011;1923;48.154;11.536;2024-02-28T06:09:50;45.07;;;20.70;;
3815;SDS011;1923;48.154;11.536;2024-02-28T06:12:18;46.20;;;20.97;;
3815;SDS011;1923;48.154;11.536;2024-02-28T06:14:46;41.57;;;20.97;;
3815;SDS011;1923;48.154;11.536;2024-02-28T06:17:14;44.57;;;20.20;;
3815;SDS011;1923;48.154;11.536;2024-02-28T06:19:42;49.03;;;19.10;;
3815;SDS011;1923;48.154;11.536;2024-02-28T06:22:10;45.57;;;18.80;;
3815;SDS011;1923;48.154;11.536;2024-02-28T06:24:40;48.90;;;21.50;;
3815;SDS011;1923;48.154;11.536;2024-02-28T06:27:09;42.73;;;20.10;;
3815;SDS011;1923;48.154;11.536;2024-02-28T06:29:41;40.63;;;20.30;;
3815;SDS011;1923;48.154;11.536;2024-02-28T06:32:09;44.70;;;20.07;;
3815;SDS011;1923;48.154;11.536;2024-02-28T06:34:37;48.67;;;21.57;;
3815;SDS011;1923;48.154;11.536;2024-02-28T06:37:05;43.70;;;20.27;;
3815;SDS011;1923;48.154;11.536;2024-02-28T06:39:33;45.43;;;20.70;;
3815;SDS011;1923;48.154;11.536;2024-02-28T06:42:01;43.73;;;19.47;;
3815;SDS011;1923;48.154;11.536;2024-02-28T06:44:31;45.63;;;19.50;;
3815;SDS011;1923;48.154;11.536;2024-02-28T06:46:59;44.83;;;22.23;;
3815;SDS011;1923;48.154;11.536;2024-02-28T06:49:27;51.37;;;22.50;;
3815;SDS011;1923;48.154;11.536;2024-02-28T06:51:55;51.80;;;21.67;;
3815;SDS011;1923;48.154;11.536;2024-02-28T06:54:25;48.13;;;21.87;;
3815;SDS011;1923;48.154;11.536;2024-02-28T06:56:54;44.47;;;19.10;;
3815;SDS011;1923;48.154;11.536;2024-02-28T06:59:23;48.60;;;20.40;;
3815;SDS011;1923;48.154;11.536;2024-02-28T07:01:52;49.43;;;20.70;;
3815;SDS011;1923;48.154;11.536;2024-02-28T07:04:20;50.87;;;21.13;;
3815;SDS011;1923;48.154;11.536;2024-02-28T07:06:48;52.07;;;21.30;;
3815;SDS011;1923;48.154;11.536;2024-02-28T07:09:17;59.07;;;22.93;;
3815;SDS011;1923;48.154;11.536;2024-02-28T07:11:45;49.40;;;21.17;;
3815;SDS011;1923;48.154;11.536;2024-02-28T07:14:13;54.93;;;22.93;;
3815;SDS011;1923;48.154;11.536;2024-02-28T07:16:42;54.20;;;22.77;;
3815;SDS011;1923;48.154;11.536;2024-02-28T07:19:12;54.93;;;21.53;;
3815;SDS011;1923;48.154;11.536;2024-02-28T07:21:41;51.33;;;20.90;;
3815;SDS011;1923;48.154;11.536;2024-02-28T07:24:09;54.23;;;22.33;;
3815;SDS011;1923;48.154;11.536;2024-02-28T07:26:37;51.17;;;22.57;;
3815;SDS011;1923;48.154;11.536;2024-02-28T07:29:06;45.53;;;20.80;;
3815;SDS011;1923;48.154;11.536;2024-02-28T07:31:35;52.37;;;22.70;;
3815;SDS011;1923;48.154;11.536;2024-02-28T07:34:03;60.77;;;22.97;;
3815;SDS011;1923;48.154;11.536;2024-02-28T07:36:33;48.73;;;21.43;;
3815;SDS011;1923;48.154;11.536;2024-02-28T07:39:01;52.77;;;21.60;;
3815;SDS011;1923;48.154;11.536;2024-02-28T07:41:29;50.27;;;21.00;;
3815;SDS011;1923;48.154;11.536;2024-02-28T07:43:58;48.20;;;21.27;;
3815;SDS011;1923;48.154;11.536;2024-02-28T07:46:27;53.53;;;21.37;;
3815;SDS011;1923;48.154;11.536;2024-02-28T07:48:56;52.20;;;22.27;;
3815;SDS011;1923;48.154;11.536;2024-02-28T07:51:24;52.83;;;22.67;;
3815;SDS011;1923;48.154;11.536;2024-02-28T07:53:53;48.30;;;22.07;;
3815;SDS011;1923;48.154;11.536;2024-02-28T07:56:21;58.23;;;23.23;;
3815;SDS011;1923;48.154;11.536;2024-02-28T07:58:50;57.23;;;23.00;;
3815;SDS011;1923;48.154;11.536;2024-02-28T08:01:18;51.87;;;22.70;;
3815;SDS011;1923;48.154;11.536;2024-02-28T08:03:49;54.00;;;22.13;;
3815;SDS011;1923;48.154;11.536;2024-02-28T08:06:17;56.53;;;21.93;;
3815;SDS011;1923;48.154;11.536;2024-02-28T08:08:45;59.90;;;23.37;;
3815;SDS011;1923;48.154;11.536;2024-02-28T08:11:14;55.80;;;23.03;;
3815;SDS011;1923;48.154;11.536;2024-02-28T08:13:43;54.60;;;21.03;;
3815;SDS011;1923;48.154;11.536;2024-02-28T08:16:11;51.40;;;21.43;;
3815;SDS011;1923;48.154;11.536;2024-02-28T08:18:39;57.83;;;25.00;;
3815;SDS011;1923;48.154;11.536;2024-02-28T08:21:08;66.93;;;23.23;;
3815;SDS011;1923;48.154;11.536;2024-02-28T08:23:36;62.40;;;22.80;;
3815;SDS011;1923;48.154;11.536;2024-02-28T08:26:04;61.50;;;22.53;;
3815;SDS011;1923;48.154;11.536;2024-02-28T08:28:34;50.53;;;21.27;;
3815;SDS011;1923;48.154;11.536;2024-02-28T08:31:02;56.07;;;22.70;;
3815;SDS011;1923;48.154;11.536;2024-02-28T08:33:31;48.87;;;21.43;;
3815;SDS011;1923;48.154;11.536;2024-02-28T08:35:59;53.67;;;21.83;;
3815;SDS011;1923;48.154;11.536;2024-02-28T08:38:27;64.73;;;23.60;;
3815;SDS011;1923;48.154;11.536;2024-02-28T08:40:55;59.67;;;22.50;;
3815;SDS011;1923;48.154;11.536;2024-02-28T08:43:23;55.03;;;22.40;;
3815;SDS011;1923;48.154;11.536;2024-02-28T08:45:52;53.93;;;22.30;;
3815;SDS011;1923;48.154;11.536;2024-02-28T08:48:21;57.17;;;22.10;;
3815;SDS011;1923;48.154;11.536;2024-02-28T08:50:50;69.57;;;26.57;;
3815;SDS011;1923;48.154;11.536;2024-02-28T08:53:18;57.13;;;23.10;;
3815;SDS011;1923;48.154;11.536;2024-02-28T08:55:46;55.80;;;23.73;;
3815;SDS011;1923;48.154;11.536;2024-02-28T08:58:14;57.43;;;24.20;;
3815;SDS011;1923;48.154;11.536;2024-02-28T09:00:42;56.50;;;22.60;;
3815;SDS011;1923;48.154;11.536;2024-02-28T09:03:11;57.70;;;24.33;;
3815;SDS011;1923;48.154;11.536;2024-02-28T09:05:40;57.93;;;24.60;;
3815;SDS011;1923;48.154;11.536;2024-02-28T09:08:07;54.97;;;22.17;;
3815;SDS011;1923;48.154;11.536;2024-02-28T09:10:39;55.03;;;23.53;;
3815;SDS011;1923;48.154;11.536;2024-02-28T09:13:07;56.03;;;21.33;;
3815;SDS011;1923;48.154;11.536;2024-02-28T09:15:36;54.27;;;22.17;;
3815;SDS011;1923;48.154;11.536;2024-02-28T09:18:04;50.60;;;21.60;;
3815;SDS011;1923;48.154;11.536;2024-02-28T09:20:34;53.23;;;23.10;;
3815;SDS011;1923;48.154;11.536;2024-02-28T09:23:03;52.87;;;23.57;;
3815;SDS011;1923;48.154;11.536;2024-02-28T09:25:33;55.43;;;22.33;;
3815;SDS011;1923;48.154;11.536;2024-02-28T09:28:01;53.10;;;23.03;;
3815;SDS011;1923;48.154;11.536;2024-02-28T09:30:30;66.30;;;25.23;;
3815;SDS011;1923;48.154;11.536;2024-02-28T09:33:11;53.93;;;22.10;;
3815;SDS011;1923;48.154;11.536;2024-02-28T09:35:41;60.20;;;22.20;;
3815;SDS011;1923;48.154;11.536;2024-02-28T09:38:09;52.40;;;22.17;;
3815;SDS011;1923;48.154;11.536;2024-02-28T09:40:38;56.53;;;23.00;;
3815;SDS011;1923;48.154;11.536;2024-02-28T09:43:06;50.30;;;22.53;;
3815;SDS011;1923;48.154;11.536;2024-02-28T09:45:41;53.57;;;23.37;;
3815;SDS011;1923;48.154;11.536;2024-02-28T09:48:13;52.87;;;23.53;;
3815;SDS011;1923;48.154;11.536;2024-02-28T09:50:45;55.93;;;26.80;;
3815;SDS011;1923;48.154;11.536;2024-02-28T09:53:13;51.90;;;22.97;;
3815;SDS011;1923;48.154;11.536;2024-02-28T09:55:41;49.70;;;22.30;;
3815;SDS011;1923;48.154;11.536;2024-02-28T09:58:10;64.37;;;24.33;;
3815;SDS011;1923;48.154;11.536;2024-02-28T10:00:38;52.67;;;22.60;;
3815;SDS011;1923;48.154;11.536;2024-02-28T10:03:11;55.53;;;23.83;;
3815;SDS011;1923;48.154;11.536;2024-02-28T10:05:41;56.93;;;24.00;;
3815;SDS011;1923;48.154;11.536;2024-02-28T10:08:10;50.70;;;21.37;;
3815;SDS011;1923;48.154;11.536;2024-02-28T10:10:44;57.00;;;23.13;;
3815;SDS011;1923;48.154;11.536;2024-02-28T10:13:15;57.47;;;23.30;;
3815;SDS011;1923;48.154;11.536;2024-02-28T10:15:44;55.00;;;22.33;;
3815;SDS011;1923;48.154;11.536;2024-02-28T10:18:12;57.80;;;23.37;;
3815;SDS011;1923;48.154;11.536;2024-02-28T10:20:40;51.60;;;22.80;;
3815;SDS011;1923;48.154;11.536;2024-02-28T10:23:08;54.20;;;23.20;;
3815;SDS011;1923;48.154;11.536;2024-02-28T10:25:42;49.60;;;22.33;;
3815;SDS011;1923;48.154;11.536;2024-02-28T10:28:22;52.70;;;22.90;;
3815;SDS011;1923;48.154;11.536;2024-02-28T10:30:51;56.63;;;22.50;;
3815;SDS011;1923;48.154;11.536;2024-02-28T10:33:21;51.07;;;23.03;;
3815;SDS011;1923;48.154;11.536;2024-02-28T10:35:50;56.10;;;22.73;;
3815;SDS011;1923;48.154;11.536;2024-02-28T10:38:20;50.57;;;20.23;;
3815;SDS011;1923;48.154;11.536;2024-02-28T10:40:48;51.60;;;20.93;;
3815;SDS011;1923;48.154;11.536;2024-02-28T10:43:18;50.50;;;22.50;;
3815;SDS011;1923;48.154;11.536;2024-02-28T10:45:47;57.23;;;23.53;;
3815;SDS011;1923;48.154;11.536;2024-02-28T10:48:37;48.57;;;20.97;;
3815;SDS011;1923;48.154;11.536;2024-02-28T10:51:05;57.63;;;22.43;;
3815;SDS011;1923;48.154;11.536;2024-02-28T10:53:36;52.13;;;22.77;;
3815;SDS011;1923;48.154;11.536;2024-02-28T10:56:05;47.97;;;21.50;;
3815;SDS011;1923;48.154;11.536;2024-02-28T10:58:38;45.80;;;19.67;;
3815;SDS011;1923;48.154;11.536;2024-02-28T11:01:18;56.97;;;22.43;;
3815;SDS011;1923;48.154;11.536;2024-02-28T11:03:48;47.43;;;21.23;;
3815;SDS011;1923;48.154;11.536;2024-02-28T11:06:17;55.03;;;20.83;;
3815;SDS011;1923;48.154;11.536;2024-02-28T11:08:49;49.53;;;20.63;;
3815;SDS011;1923;48.154;11.536;2024-02-28T11:11:21;52.00;;;20.97;;
3815;SDS011;1923;48.154;11.536;2024-02-28T11:13:52;45.93;;;19.90;;
3815;SDS011;1923;48.154;11.536;2024-02-28T11:16:25;52.60;;;21.60;;
3815;SDS011;1923;48.154;11.536;2024-02-28T11:18:55;55.87;;;22.33;;
3815;SDS011;1923;48.154;11.536;2024-02-28T11:21:23;56.53;;;24.27;;
3815;SDS011;1923;48.154;11.536;2024-02-28T11:23:58;52.40;;;21.97;;
3815;SDS011;1923;48.154;11.536;2024-02-28T11:26:26;56.47;;;23.43;;
3815;SDS011;1923;48.154;11.536;2024-02-28T11:28:55;54.77;;;22.63;;
3815;SDS011;1923;48.154;11.536;2024-02-28T11:31:23;50.67;;;22.90;;
3815;SDS011;1923;48.154;11.536;2024-02-28T11:33:51;55.70;;;23.20;;
3815;SDS011;1923;48.154;11.536;2024-02-28T11:36:20;55.93;;;23.20;;
3815;SDS011;1923;48.154;11.536;2024-02-28T11:38:48;48.90;;;22.33;;
3815;SDS011;1923;48.154;11.536;2024-02-28T11:41:26;47.63;;;21.43;;
3815;SDS011;1923;48.154;11.536;2024-02-28T11:43:55;41.83;;;20.07;;
3815;SDS011;1923;48.154;11.536;2024-02-28T11:46:23;46.87;;;20.70;;
3815;SDS011;1923;48.154;11.536;2024-02-28T11:48:51;60.00;;;25.33;;
3815;SDS011;1923;48.154;11.536;2024-02-28T11:51:20;54.83;;;24.23;;
3815;SDS011;1923;48.154;11.536;2024-02-28T11:53:49;47.33;;;21.00;;
3815;SDS011;1923;48.154;11.536;2024-02-28T11:56:17;44.27;;;21.93;;
3815;SDS011;1923;48.154;11.536;2024-02-28T11:58:52;45.33;;;21.97;;
3815;SDS011;1923;48.154;11.536;2024-02-28T12:01:31;52.30;;;22.43;;
3815;SDS011;1923;48.154;11.536;2024-02-28T12:04:03;50.03;;;22.37;;
3815;SDS011;1923;48.154;11.536;2024-02-28T12:06:33;53.97;;;23.90;;
3815;SDS011;1923;48.154;11.536;2024-02-28T12:09:03;49.70;;;22.70;;
3815;SDS011;1923;48.154;11.536;2024-02-28T12:11:31;43.63;;;20.37;;
3815;SDS011;1923;48.154;11.536;2024-02-28T12:14:02;49.50;;;21.57;;
3815;SDS011;1923;48.154;11.536;2024-02-28T12:16:33;52.93;;;22.10;;
3815;SDS011;1923;48.154;11.536;2024-02-28T12:19:02;57.63;;;23.03;;
3815;SDS011;1923;48.154;11.536;2024-02-28T12:21:30;60.13;;;24.77;;
3815;SDS011;1923;48.154;11.536;2024-02-28T12:23:58;51.33;;;21.70;;
3815;SDS011;1923;48.154;11.536;2024-02-28T12:26:27;55.03;;;23.27;;
3815;SDS011;1923;48.154;11.536;2024-02-28T12:28:55;52.43;;;23.37;;
3815;SDS011;1923;48.154;11.536;2024-02-28T12:31:24;52.63;;;22.40;;
3815;SDS011;1923;48.154;11.536;2024-02-28T12:33:52;60.27;;;23.40;;
3815;SDS011;1923;48.154;11.536;2024-02-28T12:36:20;51.73;;;22.57;;
3815;SDS011;1923;48.154;11.536;2024-02-28T12:38:49;47.87;;;22.20;;
3815;SDS011;1923;48.154;11.536;2024-02-28T12:41:17;45.67;;;20.23;;
3815;SDS011;1923;48.154;11.536;2024-02-28T12:43:45;48.80;;;22.53;;
3815;SDS011;1923;48.154;11.536;2024-02-28T12:46:13;51.20;;;20.97;;
3815;SDS011;1923;48.154;11.536;2024-02-28T12:48:43;44.97;;;20.47;;
3815;SDS011;1923;48.154;11.536;2024-02-28T12:51:34;45.13;;;20.37;;
3815;SDS011;1923;48.154;11.536;2024-02-28T12:54:07;44.07;;;20.70;;
3815;SDS011;1923;48.154;11.536;2024-02-28T12:56:35;44.30;;;19.23;;
3815;SDS011;1923;48.154;11.536;2024-02-28T12:59:03;46.60;;;20.20;;
3815;SDS011;1923;48.154;11.536;2024-02-28T13:01:33;46.00;;;20.60;;
3815;SDS011;1923;48.154;11.536;2024-02-28T13:04:03;44.13;;;19.83;;
3815;SDS011;1923;48.154;11.536;2024-02-28T13:06:31;45.77;;;19.90;;
3815;SDS011;1923;48.154;11.536;2024-02-28T13:09:00;43.53;;;20.27;;
3815;SDS011;1923;48.154;11.536;2024-02-28T13:11:28;40.90;;;18.83;;
3815;SDS011;1923;48.154;11.536;2024-02-28T13:13:56;43.33;;;21.80;;
3815;SDS011;1923;48.154;11.536;2024-02-28T13:16:24;46.00;;;20.00;;
3815;SDS011;1923;48.154;11.536;2024-02-28T13:18:52;43.07;;;19.90;;
3815;SDS011;1923;48.154;11.536;2024-02-28T13:21:22;44.57;;;20.90;;
3815;SDS011;1923;48.154;11.536;2024-02-28T13:23:50;42.67;;;20.50;;
3815;SDS011;1923;48.154;11.536;2024-02-28T13:26:18;44.97;;;21.67;;
3815;SDS011;1923;48.154;11.536;2024-02-28T13:28:47;54.57;;;22.60;;
3815;SDS011;1923;48.154;11.536;2024-02-28T13:31:19;47.80;;;22.57;;
3815;SDS011;1923;48.154;11.536;2024-02-28T13:33:47;48.37;;;20.90;;
3815;SDS011;1923;48.154;11.536;2024-02-28T13:36:16;45.27;;;20.60;;
3815;SDS011;1923;48.154;11.536;2024-02-28T13:38:45;43.80;;;20.17;;
3815;SDS011;1923;48.154;11.536;2024-02-28T13:41:13;48.10;;;20.63;;
3815;SDS011;1923;48.154;11.536;2024-02-28T13:43:43;48.80;;;21.83;;
3815;SDS011;1923;48.154;11.536;2024-02-28T13:46:11;48.57;;;20.40;;
3815;SDS011;1923;48.154;11.536;2024-02-28T13:48:41;43.73;;;20.23;;
3815;SDS011;1923;48.154;11.536;2024-02-28T13:51:10;46.57;;;20.17;;
3815;SDS011;1923;48.154;11.536;2024-02-28T13:53:38;44.53;;;19.23;;
3815;SDS011;1923;48.154;11.536;2024-02-28T13:56:08;45.50;;;19.90;;
3815;SDS011;1923;48.154;11.536;2024-02-28T13:58:36;47.27;;;19.10;;
3815;SDS011;1923;48.154;11.536;2024-02-28T14:01:14;41.87;;;18.43;;
3815;SDS011;1923;48.154;11.536;2024-02-28T14:03:46;46.07;;;21.83;;
3815;SDS011;1923;48.154;11.536;2024-02-28T14:06:14;49.63;;;19.53;;
3815;SDS011;1923;48.154;11.536;2024-02-28T14:08:42;43.17;;;20.00;;
3815;SDS011;1923;48.154;11.536;2024-02-28T14:11:11;38.83;;;18.60;;
3815;SDS011;1923;48.154;11.536;2024-02-28T14:13:42;38.00;;;19.43;;
3815;SDS011;1923;48.154;11.536;2024-02-28T14:16:11;33.93;;;17.60;;
3815;SDS011;1923;48.154;11.536;2024-02-28T14:18:39;39.77;;;19.17;;
3815;SDS011;1923;48.154;11.536;2024-02-28T14:21:07;37.10;;;19.20;;
3815;SDS011;1923;48.154;11.536;2024-02-28T14:23:35;40.60;;;18.50;;
3815;SDS011;1923;48.154;11.536;2024-02-28T14:26:03;39.60;;;17.97;;
3815;SDS011;1923;48.154;11.536;2024-02-28T14:28:33;38.23;;;18.30;;
3815;SDS011;1923;48.154;11.536;2024-02-28T14:31:01;38.93;;;19.03;;
3815;SDS011;1923;48.154;11.536;2024-02-28T14:33:30;40.60;;;19.93;;
3815;SDS011;1923;48.154;11.536;2024-02-28T14:35:58;46.87;;;19.70;;
3815;SDS011;1923;48.154;11.536;2024-02-28T14:38:27;41.33;;;19.40;;
3815;SDS011;1923;48.154;11.536;2024-02-28T14:40:55;50.57;;;20.27;;
3815;SDS011;1923;48.154;11.536;2024-02-28T14:43:23;48.50;;;19.80;;